createdAt,value
2022-09-06T00:02:31.810Z,2.00
2022-09-06T00:07:37.262Z,1.80
2022-09-06T00:12:42.624Z,2.20
2022-09-06T00:17:47.822Z,2.00
2022-09-06T00:22:53.097Z,2.00
2022-09-06T00:27:59.120Z,1.60
2022-09-06T00:33:04.318Z,2.10
2022-09-06T00:38:09.520Z,2.10
2022-09-06T00:43:14.790Z,2.00
2022-09-06T00:48:20.268Z,1.90
2022-09-06T00:53:25.783Z,1.70
2022-09-06T00:58:30.999Z,2.10
2022-09-06T01:03:37.288Z,2.20
2022-09-06T01:08:49.882Z,1.90
2022-09-06T01:13:58.211Z,1.70
2022-09-06T01:19:30.181Z,2.00
2022-09-06T01:24:51.475Z,2.10
2022-09-06T01:30:01.679Z,2.20
2022-09-06T01:35:12.665Z,2.30
2022-09-06T01:40:18.084Z,2.70
2022-09-06T01:45:24.753Z,2.80
2022-09-06T01:50:44.019Z,2.10
2022-09-06T01:55:51.996Z,2.40
2022-09-06T02:01:00.342Z,2.20
2022-09-06T02:06:08.045Z,1.90
2022-09-06T02:11:15.402Z,2.40
2022-09-06T02:16:21.996Z,2.20
2022-09-06T02:21:29.299Z,2.40
2022-09-06T02:26:36.703Z,2.50
2022-09-06T02:31:44.483Z,1.70
2022-09-06T02:36:50.055Z,1.80
2022-09-06T02:41:55.721Z,2.40
2022-09-06T02:47:01.718Z,3.10
2022-09-06T02:52:06.984Z,2.30
2022-09-06T02:57:12.661Z,2.10
2022-09-06T03:02:18.241Z,2.70
2022-09-06T03:07:23.453Z,2.50
2022-09-06T03:12:28.684Z,2.80
2022-09-06T03:17:33.936Z,4.10
2022-09-06T03:22:39.898Z,3.80
2022-09-06T03:27:46.199Z,3.50
2022-09-06T03:32:51.792Z,3.40
2022-09-06T03:37:57.265Z,3.00
2022-09-06T03:43:02.514Z,3.30
2022-09-06T03:48:07.852Z,2.80
2022-09-06T03:53:13.080Z,3.00
2022-09-06T03:58:19.420Z,3.10
2022-09-06T04:03:24.647Z,3.00
2022-09-06T04:08:29.959Z,3.20
2022-09-06T04:13:35.706Z,3.00
2022-09-06T04:18:41.049Z,3.00
2022-09-06T04:23:46.281Z,2.80
2022-09-06T04:28:51.634Z,3.40
2022-09-06T04:33:56.940Z,3.80
2022-09-06T04:39:02.155Z,3.50
2022-09-06T04:44:07.377Z,4.00
2022-09-06T04:49:12.699Z,3.70
2022-09-06T04:54:18.131Z,2.80
2022-09-06T04:59:23.507Z,3.20
2022-09-06T05:04:28.845Z,3.60
2022-09-06T05:09:34.595Z,3.30
2022-09-06T05:14:39.840Z,2.50
2022-09-06T05:19:45.166Z,4.00
2022-09-06T05:24:50.710Z,3.10
2022-09-06T05:29:55.998Z,3.30
2022-09-06T05:35:28.722Z,2.90
2022-09-06T05:40:33.913Z,3.20
2022-09-06T05:45:39.215Z,3.10
2022-09-06T05:50:44.459Z,2.80
2022-09-06T05:55:49.707Z,3.30
2022-09-06T06:01:04.791Z,3.50
2022-09-06T06:06:10.493Z,3.30
2022-09-06T06:11:15.777Z,2.90
2022-09-06T06:16:22.354Z,3.70
2022-09-06T06:21:28.624Z,2.70
2022-09-06T06:26:34.726Z,3.50
2022-09-06T06:31:40.026Z,3.60
2022-09-06T06:36:45.308Z,2.60
2022-09-06T06:41:50.872Z,3.30
2022-09-06T06:47:13.014Z,3.40
2022-09-06T06:52:18.248Z,2.90
2022-09-06T06:57:23.566Z,2.70
2022-09-06T07:02:28.865Z,3.00
2022-09-06T07:07:36.542Z,2.80
2022-09-06T07:12:43.438Z,2.90
2022-09-06T07:17:48.690Z,2.90
2022-09-06T07:28:26.867Z,3.20
2022-09-06T07:33:32.155Z,3.40
2022-09-06T07:38:37.467Z,2.80
2022-09-06T07:43:42.699Z,2.90
2022-09-06T07:48:47.897Z,2.90
2022-09-06T07:54:06.876Z,2.70
2022-09-06T07:59:18.413Z,2.90
2022-09-06T08:04:23.631Z,2.40
2022-09-06T08:09:28.978Z,3.00
2022-09-06T08:14:34.243Z,3.10
2022-09-06T08:19:39.460Z,3.10
2022-09-06T08:24:44.652Z,3.00
2022-09-06T08:29:49.902Z,3.10
2022-09-06T08:34:55.057Z,3.20
2022-09-06T08:40:00.511Z,3.30
2022-09-06T08:45:10.552Z,2.50
2022-09-06T08:50:15.767Z,3.20
2022-09-06T08:55:35.211Z,3.00
2022-09-06T09:00:42.154Z,2.90
2022-09-06T09:05:49.340Z,3.00
2022-09-06T09:10:55.870Z,3.50
2022-09-06T09:16:01.037Z,3.60
2022-09-06T09:21:06.547Z,2.80
2022-09-06T09:26:15.059Z,3.30
2022-09-06T09:31:34.723Z,3.30
2022-09-06T09:36:40.063Z,3.40
2022-09-06T09:41:51.274Z,3.50
2022-09-06T09:46:56.634Z,3.20
2022-09-06T09:52:07.631Z,2.80
2022-09-06T09:57:14.949Z,3.00
2022-09-06T10:02:21.672Z,2.90
2022-09-06T10:07:27.061Z,2.90
2022-09-06T10:12:33.640Z,2.70
2022-09-06T10:17:39.907Z,2.80
2022-09-06T10:22:49.843Z,2.50
2022-09-06T10:28:10.913Z,2.40
2022-09-06T10:33:24.800Z,2.60
2022-09-06T10:38:37.066Z,3.10
2022-09-06T10:43:45.573Z,2.70
2022-09-06T10:48:51.153Z,2.70
2022-09-06T10:53:57.956Z,2.30
2022-09-06T11:10:02.011Z,2.20
2022-09-06T11:15:08.193Z,2.20
2022-09-06T11:20:16.509Z,2.70
2022-09-06T11:25:33.252Z,2.10
2022-09-06T11:30:38.689Z,2.30
2022-09-06T11:35:45.156Z,2.20
2022-09-06T11:40:53.494Z,2.10
2022-09-06T11:45:58.719Z,1.90
2022-09-06T11:51:06.670Z,2.10
2022-09-06T11:56:26.937Z,1.90
2022-09-06T12:01:37.051Z,2.00
2022-09-06T12:06:43.956Z,1.60
2022-09-06T12:11:49.721Z,2.10
2022-09-06T12:17:27.734Z,2.00
2022-09-06T12:22:55.337Z,1.70
2022-09-06T12:28:01.292Z,1.80
2022-09-06T12:33:08.697Z,1.90
2022-09-06T12:38:15.853Z,1.70
2022-09-06T12:43:21.245Z,1.70
2022-09-06T12:48:30.902Z,1.80
2022-09-06T12:53:36.982Z,1.90
2022-09-06T12:58:42.139Z,1.80
2022-09-06T13:03:51.119Z,2.30
2022-09-06T13:08:58.411Z,2.10
2022-09-06T13:14:13.986Z,1.70
2022-09-06T13:19:29.791Z,1.80
2022-09-06T13:24:46.777Z,1.50
2022-09-06T13:29:57.811Z,1.20
2022-09-06T13:35:03.732Z,1.70
2022-09-06T13:40:22.721Z,1.60
2022-09-06T13:45:29.638Z,1.60
2022-09-06T13:50:34.854Z,1.50
2022-09-06T13:55:40.440Z,1.80
2022-09-06T14:00:47.064Z,1.70
2022-09-06T14:05:52.474Z,1.60
2022-09-06T14:10:57.956Z,1.50
2022-09-06T14:16:05.409Z,1.70
2022-09-06T14:21:10.767Z,1.50
2022-09-06T14:26:16.376Z,1.30
2022-09-06T14:31:22.861Z,1.50
2022-09-06T14:36:29.309Z,1.40
2022-09-06T14:41:34.685Z,1.40
2022-09-06T14:46:40.309Z,1.50
2022-09-06T14:51:46.083Z,1.50
2022-09-06T14:56:51.735Z,1.70
2022-09-06T15:01:57.515Z,1.20
2022-09-06T15:07:03.789Z,1.50
2022-09-06T15:12:09.180Z,1.80
2022-09-06T15:17:14.365Z,1.30
2022-09-06T15:22:19.621Z,1.20
2022-09-06T15:27:24.997Z,1.80
2022-09-06T15:32:30.572Z,1.50
2022-09-06T15:37:35.847Z,1.60
2022-09-06T15:42:41.107Z,1.50
2022-09-06T15:47:46.353Z,1.50
2022-09-06T15:52:51.588Z,1.40
2022-09-06T15:57:57.099Z,1.50
2022-09-06T16:03:02.374Z,1.20
2022-09-06T16:08:07.673Z,1.40
2022-09-06T16:13:13.109Z,2.00
2022-09-06T16:18:19.958Z,3.40
2022-09-06T16:23:25.429Z,6.80
2022-09-06T16:28:31.285Z,3.90
2022-09-06T16:33:37.875Z,1.70
2022-09-06T16:38:43.413Z,6.20
2022-09-06T16:43:49.685Z,1.30
2022-09-06T16:48:55.915Z,1.70
2022-09-06T16:54:01.726Z,1.70
2022-09-06T16:59:08.604Z,1.50
2022-09-06T17:04:14.028Z,1.80
2022-09-06T17:09:20.142Z,1.50
2022-09-06T17:14:25.351Z,1.60
2022-09-06T17:19:31.452Z,2.40
2022-09-06T17:24:36.970Z,1.80
2022-09-06T17:29:42.285Z,1.50
2022-09-06T17:34:47.484Z,1.60
2022-09-06T17:39:52.772Z,2.00
2022-09-06T17:44:58.059Z,2.50
2022-09-06T17:50:03.392Z,2.10
2022-09-06T17:55:09.165Z,2.10
2022-09-06T18:00:15.696Z,1.60
2022-09-06T18:05:20.976Z,1.90
2022-09-06T18:10:26.148Z,1.70
2022-09-06T18:15:31.599Z,2.10
2022-09-06T18:20:38.044Z,1.80
2022-09-06T18:25:43.520Z,2.30
2022-09-06T18:30:48.739Z,1.90
2022-09-06T18:35:54.035Z,2.60
2022-09-06T18:41:00.076Z,2.10
2022-09-06T18:46:07.159Z,2.70
2022-09-06T18:51:13.196Z,2.90
2022-09-06T18:56:18.493Z,2.50
2022-09-06T19:01:24.411Z,2.40
2022-09-06T19:06:31.231Z,2.90
2022-09-06T19:11:36.901Z,2.60
2022-09-06T19:16:43.312Z,3.20
2022-09-06T19:21:48.883Z,2.60
2022-09-06T19:26:55.569Z,2.90
2022-09-06T19:32:01.122Z,2.40
2022-09-06T19:37:06.443Z,3.40
2022-09-06T19:42:11.843Z,3.70
2022-09-06T19:47:17.970Z,3.00
2022-09-06T19:52:23.313Z,3.00
2022-09-06T19:57:28.567Z,3.20
2022-09-06T20:02:34.089Z,3.20
2022-09-06T20:07:39.895Z,2.90
2022-09-06T20:12:46.010Z,2.70
2022-09-06T20:17:52.861Z,2.90
2022-09-06T20:22:58.162Z,3.40
2022-09-06T20:28:03.879Z,3.60
2022-09-06T20:33:09.206Z,3.50
2022-09-06T20:38:14.768Z,3.20
2022-09-06T20:43:20.026Z,3.50
2022-09-06T20:48:25.455Z,3.50
2022-09-06T20:53:31.636Z,3.00
2022-09-06T20:58:38.012Z,3.60
2022-09-06T21:03:44.003Z,3.10
2022-09-06T21:08:49.402Z,3.30
2022-09-06T21:13:55.935Z,3.00
2022-09-06T21:19:01.820Z,2.80
2022-09-06T21:24:08.011Z,2.90
2022-09-06T21:29:13.912Z,2.80
2022-09-06T21:34:19.268Z,3.00
2022-09-06T21:39:24.593Z,2.50
2022-09-06T21:44:29.965Z,2.50
2022-09-06T21:49:35.306Z,2.70
2022-09-06T21:54:40.619Z,2.80
2022-09-06T21:59:45.942Z,2.30
2022-09-06T22:04:51.843Z,3.00
2022-09-06T22:09:57.167Z,2.60
2022-09-06T22:15:02.545Z,3.20
2022-09-06T22:20:09.712Z,2.50
2022-09-06T22:25:15.151Z,3.00
2022-09-06T22:30:25.093Z,3.50
2022-09-06T22:35:31.349Z,2.80
2022-09-06T22:40:36.626Z,3.20
2022-09-06T22:45:49.840Z,3.20
2022-09-06T22:50:56.957Z,3.00
2022-09-06T22:56:02.502Z,3.30
2022-09-06T23:01:09.256Z,2.90
2022-09-06T23:06:14.778Z,3.30
2022-09-06T23:11:20.414Z,4.10
2022-09-06T23:16:26.217Z,3.30
2022-09-06T23:21:31.515Z,3.10
2022-09-06T23:26:39.885Z,4.00
2022-09-06T23:31:45.160Z,3.40
2022-09-06T23:36:52.439Z,4.10
2022-09-06T23:41:57.744Z,2.80
2022-09-06T23:47:02.946Z,2.90
2022-09-06T23:52:08.253Z,3.60
2022-09-06T23:57:13.583Z,3.60
